sensor_id;sensor_type;location;lat;lon;timestamp;pressure;altitude;pressure_sealevel;temperature;humidity
18987;BME280;9627;59.236;18.142;2023-03-11T00:01:01;99354.47;;;-7.37;100.00
18987;BME280;9627;59.236;18.142;2023-03-11T00:03:28;99351.59;;;-7.32;100.00
18987;BME280;9627;59.236;18.142;2023-03-11T00:05:55;99356.94;;;-7.35;100.00
18987;BME280;9627;59.236;18.142;2023-03-11T00:08:24;99348.69;;;-7.28;100.00
18987;BME280;9627;59.236;18.142;2023-03-11T00:10:53;99351.19;;;-7.26;100.00
18987;BME280;9627;59.236;18.142;2023-03-11T00:13:20;99355.50;;;-7.27;100.00
18987;BME280;9627;59.236;18.142;2023-03-11T00:15:49;99356.34;;;-7.26;100.00
18987;BME280;9627;59.236;18.142;2023-03-11T00:18:16;99352.81;;;-7.25;100.00
18987;BME280;9627;59.236;18.142;2023-03-11T00:20:43;99346.63;;;-7.23;100.00
18987;BME280;9627;59.236;18.142;2023-03-11T00:23:11;99353.66;;;-7.25;100.00
18987;BME280;9627;59.236;18.142;2023-03-11T00:25:41;99346.09;;;-7.28;100.00
18987;BME280;9627;59.236;18.142;2023-03-11T00:28:08;99349.94;;;-7.33;100.00
18987;BME280;9627;59.236;18.142;2023-03-11T00:30:36;99347.34;;;-7.33;100.00
18987;BME280;9627;59.236;18.142;2023-03-11T00:33:03;99348.72;;;-7.40;100.00
18987;BME280;9627;59.236;18.142;2023-03-11T00:35:30;99354.25;;;-7.34;100.00
18987;BME280;9627;59.236;18.142;2023-03-11T00:37:59;99343.75;;;-7.31;100.00
18987;BME280;9627;59.236;18.142;2023-03-11T00:40:27;99341.88;;;-7.41;100.00
18987;BME280;9627;59.236;18.142;2023-03-11T00:42:56;99345.19;;;-7.39;100.00
18987;BME280;9627;59.236;18.142;2023-03-11T00:45:23;99338.81;;;-7.46;100.00
18987;BME280;9627;59.236;18.142;2023-03-11T00:47:51;99338.59;;;-7.43;100.00
18987;BME280;9627;59.236;18.142;2023-03-11T00:50:18;99332.09;;;-7.36;100.00
18987;BME280;9627;59.236;18.142;2023-03-11T00:52:46;99326.53;;;-7.30;100.00
18987;BME280;9627;59.236;18.142;2023-03-11T00:55:14;99329.53;;;-7.36;100.00
18987;BME280;9627;59.236;18.142;2023-03-11T00:57:41;99333.53;;;-7.32;100.00
18987;BME280;9627;59.236;18.142;2023-03-11T01:00:14;99323.97;;;-7.30;100.00
18987;BME280;9627;59.236;18.142;2023-03-11T01:02:41;99333.13;;;-7.26;100.00
18987;BME280;9627;59.236;18.142;2023-03-11T01:05:08;99330.56;;;-7.26;100.00
18987;BME280;9627;59.236;18.142;2023-03-11T01:07:36;99326.41;;;-7.29;100.00
18987;BME280;9627;59.236;18.142;2023-03-11T01:10:03;99324.88;;;-7.31;100.00
18987;BME280;9627;59.236;18.142;2023-03-11T01:12:30;99321.69;;;-7.35;100.00
18987;BME280;9627;59.236;18.142;2023-03-11T01:14:57;99327.06;;;-7.38;100.00
18987;BME280;9627;59.236;18.142;2023-03-11T01:17:26;99329.63;;;-7.38;100.00
18987;BME280;9627;59.236;18.142;2023-03-11T01:19:53;99324.56;;;-7.39;100.00
18987;BME280;9627;59.236;18.142;2023-03-11T01:22:20;99324.38;;;-7.36;100.00
18987;BME280;9627;59.236;18.142;2023-03-11T01:24:47;99340.03;;;-7.39;100.00
18987;BME280;9627;59.236;18.142;2023-03-11T01:27:14;99338.41;;;-7.40;100.00
18987;BME280;9627;59.236;18.142;2023-03-11T01:29:41;99327.16;;;-7.39;100.00
18987;BME280;9627;59.236;18.142;2023-03-11T01:32:08;99321.28;;;-7.41;100.00
18987;BME280;9627;59.236;18.142;2023-03-11T01:34:37;99324.06;;;-7.44;100.00
18987;BME280;9627;59.236;18.142;2023-03-11T01:37:04;99317.47;;;-7.48;100.00
18987;BME280;9627;59.236;18.142;2023-03-11T01:39:31;99320.97;;;-7.37;100.00
18987;BME280;9627;59.236;18.142;2023-03-11T01:41:59;99317.16;;;-7.44;100.00
18987;BME280;9627;59.236;18.142;2023-03-11T01:44:26;99306.94;;;-7.33;100.00
18987;BME280;9627;59.236;18.142;2023-03-11T01:49:40;99305.09;;;-7.43;100.00
18987;BME280;9627;59.236;18.142;2023-03-11T01:52:07;99305.41;;;-7.61;100.00
18987;BME280;9627;59.236;18.142;2023-03-11T01:54:34;99301.63;;;-7.68;100.00
18987;BME280;9627;59.236;18.142;2023-03-11T01:57:03;99297.19;;;-7.66;100.00
18987;BME280;9627;59.236;18.142;2023-03-11T01:59:32;99307.91;;;-7.72;100.00
18987;BME280;9627;59.236;18.142;2023-03-11T02:02:04;99301.13;;;-7.73;100.00
18987;BME280;9627;59.236;18.142;2023-03-11T02:04:34;99297.22;;;-7.78;100.00
18987;BME280;9627;59.236;18.142;2023-03-11T02:07:04;99300.06;;;-7.70;100.00
18987;BME280;9627;59.236;18.142;2023-03-11T02:09:32;99308.53;;;-7.81;100.00
18987;BME280;9627;59.236;18.142;2023-03-11T02:11:59;99303.81;;;-7.74;100.00
18987;BME280;9627;59.236;18.142;2023-03-11T02:14:27;99303.25;;;-7.54;100.00
18987;BME280;9627;59.236;18.142;2023-03-11T02:16:55;99296.78;;;-7.60;100.00
18987;BME280;9627;59.236;18.142;2023-03-11T02:19:28;99301.94;;;-7.60;100.00
18987;BME280;9627;59.236;18.142;2023-03-11T02:21:56;99296.66;;;-7.45;100.00
18987;BME280;9627;59.236;18.142;2023-03-11T02:24:26;99298.97;;;-7.30;100.00
18987;BME280;9627;59.236;18.142;2023-03-11T02:26:58;99290.09;;;-7.26;100.00
18987;BME280;9627;59.236;18.142;2023-03-11T02:29:27;99289.78;;;-7.21;100.00
18987;BME280;9627;59.236;18.142;2023-03-11T02:31:54;99292.75;;;-7.15;100.00
18987;BME280;9627;59.236;18.142;2023-03-11T02:34:22;99282.53;;;-7.16;100.00
18987;BME280;9627;59.236;18.142;2023-03-11T02:36:49;99286.78;;;-7.15;100.00
18987;BME280;9627;59.236;18.142;2023-03-11T02:39:26;99288.09;;;-7.10;100.00
18987;BME280;9627;59.236;18.142;2023-03-11T02:41:54;99284.69;;;-7.10;100.00
18987;BME280;9627;59.236;18.142;2023-03-11T02:44:23;99276.28;;;-7.01;100.00
18987;BME280;9627;59.236;18.142;2023-03-11T02:46:51;99281.53;;;-6.90;100.00
18987;BME280;9627;59.236;18.142;2023-03-11T02:49:18;99277.34;;;-6.80;100.00
18987;BME280;9627;59.236;18.142;2023-03-11T02:51:46;99279.97;;;-6.69;100.00
18987;BME280;9627;59.236;18.142;2023-03-11T02:54:13;99272.06;;;-6.55;100.00
18987;BME280;9627;59.236;18.142;2023-03-11T02:56:40;99277.50;;;-6.47;100.00
18987;BME280;9627;59.236;18.142;2023-03-11T02:59:07;99274.47;;;-6.41;100.00
18987;BME280;9627;59.236;18.142;2023-03-11T03:01:35;99281.06;;;-6.37;100.00
18987;BME280;9627;59.236;18.142;2023-03-11T03:04:02;99274.69;;;-6.44;100.00
18987;BME280;9627;59.236;18.142;2023-03-11T03:06:29;99273.03;;;-6.45;100.00
18987;BME280;9627;59.236;18.142;2023-03-11T03:08:56;99274.91;;;-6.47;100.00
18987;BME280;9627;59.236;18.142;2023-03-11T03:11:23;99271.81;;;-6.52;100.00
18987;BME280;9627;59.236;18.142;2023-03-11T03:13:50;99269.97;;;-6.50;100.00
18987;BME280;9627;59.236;18.142;2023-03-11T03:16:17;99264.72;;;-6.48;100.00
18987;BME280;9627;59.236;18.142;2023-03-11T03:18:46;99263.88;;;-6.49;100.00
18987;BME280;9627;59.236;18.142;2023-03-11T03:21:13;99267.38;;;-6.50;100.00
18987;BME280;9627;59.236;18.142;2023-03-11T03:23:40;99267.88;;;-6.45;100.00
18987;BME280;9627;59.236;18.142;2023-03-11T03:26:10;99272.81;;;-6.42;100.00
18987;BME280;9627;59.236;18.142;2023-03-11T03:28:38;99259.72;;;-6.28;100.00
18987;BME280;9627;59.236;18.142;2023-03-11T03:31:05;99273.34;;;-6.26;100.00
18987;BME280;9627;59.236;18.142;2023-03-11T03:33:33;99273.81;;;-6.21;100.00
18987;BME280;9627;59.236;18.142;2023-03-11T03:36:01;99264.09;;;-6.06;100.00
18987;BME280;9627;59.236;18.142;2023-03-11T03:38:31;99263.50;;;-6.10;100.00
18987;BME280;9627;59.236;18.142;2023-03-11T03:40:58;99265.59;;;-6.15;100.00
18987;BME280;9627;59.236;18.142;2023-03-11T03:43:25;99261.28;;;-6.14;100.00
18987;BME280;9627;59.236;18.142;2023-03-11T03:45:55;99256.44;;;-6.19;100.00
18987;BME280;9627;59.236;18.142;2023-03-11T03:48:22;99255.59;;;-6.19;100.00
18987;BME280;9627;59.236;18.142;2023-03-11T03:50:49;99256.69;;;-6.11;100.00
18987;BME280;9627;59.236;18.142;2023-03-11T03:53:18;99247.06;;;-6.09;100.00
18987;BME280;9627;59.236;18.142;2023-03-11T03:55:46;99246.38;;;-6.11;100.00
18987;BME280;9627;59.236;18.142;2023-03-11T03:58:14;99240.97;;;-5.97;100.00
18987;BME280;9627;59.236;18.142;2023-03-11T04:00:41;99234.16;;;-5.87;100.00
18987;BME280;9627;59.236;18.142;2023-03-11T04:03:08;99239.06;;;-5.73;100.00
18987;BME280;9627;59.236;18.142;2023-03-11T04:05:36;99228.38;;;-5.68;100.00
18987;BME280;9627;59.236;18.142;2023-03-11T04:08:03;99229.31;;;-5.69;100.00
18987;BME280;9627;59.236;18.142;2023-03-11T04:10:31;99222.88;;;-5.75;100.00
18987;BME280;9627;59.236;18.142;2023-03-11T04:12:58;99230.38;;;-5.72;100.00
18987;BME280;9627;59.236;18.142;2023-03-11T04:15:25;99218.03;;;-5.68;100.00
18987;BME280;9627;59.236;18.142;2023-03-11T04:17:52;99216.41;;;-5.69;100.00
18987;BME280;9627;59.236;18.142;2023-03-11T04:20:19;99221.94;;;-5.62;100.00
18987;BME280;9627;59.236;18.142;2023-03-11T04:22:46;99218.38;;;-5.61;100.00
18987;BME280;9627;59.236;18.142;2023-03-11T04:25:13;99220.03;;;-5.60;100.00
18987;BME280;9627;59.236;18.142;2023-03-11T04:27:42;99218.25;;;-5.49;100.00
18987;BME280;9627;59.236;18.142;2023-03-11T04:30:10;99214.28;;;-5.53;100.00
18987;BME280;9627;59.236;18.142;2023-03-11T04:32:37;99210.63;;;-5.50;100.00
18987;BME280;9627;59.236;18.142;2023-03-11T04:35:04;99211.31;;;-5.48;100.00
18987;BME280;9627;59.236;18.142;2023-03-11T04:37:31;99202.84;;;-5.39;100.00
18987;BME280;9627;59.236;18.142;2023-03-11T04:39:59;99206.13;;;-5.37;100.00
18987;BME280;9627;59.236;18.142;2023-03-11T04:42:26;99200.59;;;-5.33;100.00
18987;BME280;9627;59.236;18.142;2023-03-11T04:44:54;99195.56;;;-5.34;100.00
18987;BME280;9627;59.236;18.142;2023-03-11T04:47:21;99194.47;;;-5.32;100.00
18987;BME280;9627;59.236;18.142;2023-03-11T04:49:48;99189.66;;;-5.25;100.00
18987;BME280;9627;59.236;18.142;2023-03-11T04:52:15;99183.41;;;-5.23;100.00
18987;BME280;9627;59.236;18.142;2023-03-11T04:54:42;99189.16;;;-5.19;100.00
18987;BME280;9627;59.236;18.142;2023-03-11T04:57:09;99184.81;;;-5.19;100.00
18987;BME280;9627;59.236;18.142;2023-03-11T04:59:36;99184.44;;;-5.14;100.00
18987;BME280;9627;59.236;18.142;2023-03-11T05:02:05;99184.00;;;-5.19;100.00
18987;BME280;9627;59.236;18.142;2023-03-11T05:04:32;99184.69;;;-5.17;100.00
18987;BME280;9627;59.236;18.142;2023-03-11T05:06:59;99185.63;;;-5.18;100.00
18987;BME280;9627;59.236;18.142;2023-03-11T05:09:25;99183.03;;;-5.18;100.00
18987;BME280;9627;59.236;18.142;2023-03-11T05:11:53;99181.41;;;-5.19;100.00
18987;BME280;9627;59.236;18.142;2023-03-11T05:14:19;99176.66;;;-5.14;100.00
18987;BME280;9627;59.236;18.142;2023-03-11T05:16:47;99181.63;;;-5.22;100.00
18987;BME280;9627;59.236;18.142;2023-03-11T05:19:15;99186.44;;;-5.18;100.00
18987;BME280;9627;59.236;18.142;2023-03-11T05:21:59;99185.63;;;-5.18;100.00
18987;BME280;9627;59.236;18.142;2023-03-11T05:24:26;99185.97;;;-5.12;100.00
18987;BME280;9627;59.236;18.142;2023-03-11T05:26:53;99177.84;;;-5.07;100.00
18987;BME280;9627;59.236;18.142;2023-03-11T05:29:21;99178.06;;;-5.10;100.00
18987;BME280;9627;59.236;18.142;2023-03-11T05:31:48;99184.66;;;-5.06;100.00
18987;BME280;9627;59.236;18.142;2023-03-11T05:34:16;99192.28;;;-5.05;100.00
18987;BME280;9627;59.236;18.142;2023-03-11T05:36:43;99183.66;;;-4.94;100.00
18987;BME280;9627;59.236;18.142;2023-03-11T05:39:10;99182.22;;;-4.87;100.00
18987;BME280;9627;59.236;18.142;2023-03-11T05:41:37;99173.97;;;-4.81;100.00
18987;BME280;9627;59.236;18.142;2023-03-11T05:44:04;99175.59;;;-4.80;100.00
18987;BME280;9627;59.236;18.142;2023-03-11T05:46:31;99176.28;;;-4.78;100.00
18987;BME280;9627;59.236;18.142;2023-03-11T05:48:58;99174.72;;;-4.69;100.00
18987;BME280;9627;59.236;18.142;2023-03-11T05:51:26;99173.47;;;-4.75;100.00
18987;BME280;9627;59.236;18.142;2023-03-11T05:53:53;99171.19;;;-4.68;100.00
18987;BME280;9627;59.236;18.142;2023-03-11T05:56:21;99170.38;;;-4.69;100.00
18987;BME280;9627;59.236;18.142;2023-03-11T05:58:48;99168.22;;;-4.64;100.00
18987;BME280;9627;59.236;18.142;2023-03-11T06:01:15;99166.75;;;-4.57;100.00
18987;BME280;9627;59.236;18.142;2023-03-11T06:03:42;99160.25;;;-4.51;100.00
18987;BME280;9627;59.236;18.142;2023-03-11T06:06:10;99150.09;;;-4.43;100.00
18987;BME280;9627;59.236;18.142;2023-03-11T06:08:39;99144.78;;;-4.42;100.00
18987;BME280;9627;59.236;18.142;2023-03-11T06:11:10;99139.22;;;-4.37;100.00
18987;BME280;9627;59.236;18.142;2023-03-11T06:13:37;99144.81;;;-4.32;100.00
18987;BME280;9627;59.236;18.142;2023-03-11T06:16:04;99136.91;;;-4.31;100.00
18987;BME280;9627;59.236;18.142;2023-03-11T06:18:31;99135.19;;;-4.21;100.00
18987;BME280;9627;59.236;18.142;2023-03-11T06:20:58;99142.72;;;-4.18;100.00
18987;BME280;9627;59.236;18.142;2023-03-11T06:23:26;99142.09;;;-4.10;100.00
18987;BME280;9627;59.236;18.142;2023-03-11T06:25:55;99139.78;;;-4.04;100.00
18987;BME280;9627;59.236;18.142;2023-03-11T06:28:22;99150.31;;;-3.96;100.00
18987;BME280;9627;59.236;18.142;2023-03-11T06:30:49;99153.03;;;-3.97;100.00
18987;BME280;9627;59.236;18.142;2023-03-11T06:33:16;99157.31;;;-3.87;100.00
18987;BME280;9627;59.236;18.142;2023-03-11T06:35:43;99156.09;;;-3.83;100.00
18987;BME280;9627;59.236;18.142;2023-03-11T06:38:10;99160.19;;;-3.80;100.00
18987;BME280;9627;59.236;18.142;2023-03-11T06:40:37;99166.09;;;-3.78;100.00
18987;BME280;9627;59.236;18.142;2023-03-11T06:43:06;99162.16;;;-3.63;100.00
18987;BME280;9627;59.236;18.142;2023-03-11T06:45:33;99168.88;;;-3.60;100.00
18987;BME280;9627;59.236;18.142;2023-03-11T06:48:00;99172.94;;;-3.58;100.00
18987;BME280;9627;59.236;18.142;2023-03-11T06:50:27;99172.81;;;-3.56;100.00
18987;BME280;9627;59.236;18.142;2023-03-11T06:52:53;99169.16;;;-3.54;100.00
18987;BME280;9627;59.236;18.142;2023-03-11T06:55:21;99170.53;;;-3.40;100.00
18987;BME280;9627;59.236;18.142;2023-03-11T06:57:48;99176.03;;;-3.34;100.00
18987;BME280;9627;59.236;18.142;2023-03-11T07:00:17;99169.59;;;-3.20;100.00
18987;BME280;9627;59.236;18.142;2023-03-11T07:02:44;99171.94;;;-3.17;100.00
18987;BME280;9627;59.236;18.142;2023-03-11T07:05:11;99182.06;;;-3.05;100.00
18987;BME280;9627;59.236;18.142;2023-03-11T07:07:38;99182.06;;;-2.95;100.00
18987;BME280;9627;59.236;18.142;2023-03-11T07:10:05;99178.00;;;-2.78;100.00
18987;BME280;9627;59.236;18.142;2023-03-11T07:12:32;99176.19;;;-2.68;100.00
18987;BME280;9627;59.236;18.142;2023-03-11T07:14:59;99179.75;;;-2.50;100.00
18987;BME280;9627;59.236;18.142;2023-03-11T07:17:28;99183.13;;;-2.31;100.00
18987;BME280;9627;59.236;18.142;2023-03-11T07:19:55;99172.81;;;-2.13;100.00
18987;BME280;9627;59.236;18.142;2023-03-11T07:22:22;99165.91;;;-1.95;100.00
18987;BME280;9627;59.236;18.142;2023-03-11T07:24:49;99170.97;;;-1.94;100.00
18987;BME280;9627;59.236;18.142;2023-03-11T07:27:16;99168.59;;;-1.77;100.00
18987;BME280;9627;59.236;18.142;2023-03-11T07:29:43;99167.31;;;-1.73;100.00
18987;BME280;9627;59.236;18.142;2023-03-11T07:32:10;99164.03;;;-1.66;100.00
18987;BME280;9627;59.236;18.142;2023-03-11T07:34:39;99153.84;;;-1.59;100.00
18987;BME280;9627;59.236;18.142;2023-03-11T07:37:05;99166.47;;;-1.64;100.00
18987;BME280;9627;59.236;18.142;2023-03-11T07:39:33;99161.84;;;-1.43;100.00
18987;BME280;9627;59.236;18.142;2023-03-11T07:42:00;99164.50;;;-1.53;100.00
18987;BME280;9627;59.236;18.142;2023-03-11T07:44:27;99164.19;;;-1.50;100.00
18987;BME280;9627;59.236;18.142;2023-03-11T07:46:54;99169.88;;;-1.37;100.00
18987;BME280;9627;59.236;18.142;2023-03-11T07:49:21;99164.97;;;-1.40;100.00
18987;BME280;9627;59.236;18.142;2023-03-11T07:51:49;99166.78;;;-1.23;100.00
18987;BME280;9627;59.236;18.142;2023-03-11T07:54:16;99162.53;;;-1.24;100.00
18987;BME280;9627;59.236;18.142;2023-03-11T07:56:43;99176.38;;;-1.23;100.00
18987;BME280;9627;59.236;18.142;2023-03-11T07:59:10;99168.06;;;-1.09;100.00
18987;BME280;9627;59.236;18.142;2023-03-11T08:01:38;99162.41;;;-0.87;100.00
18987;BME280;9627;59.236;18.142;2023-03-11T08:04:11;99168.34;;;-0.77;100.00
18987;BME280;9627;59.236;18.142;2023-03-11T08:06:40;99151.94;;;-0.52;100.00
18987;BME280;9627;59.236;18.142;2023-03-11T08:09:09;99160.84;;;-0.37;100.00
18987;BME280;9627;59.236;18.142;2023-03-11T08:11:37;99162.69;;;-0.29;100.00
18987;BME280;9627;59.236;18.142;2023-03-11T08:14:04;99155.06;;;-0.23;100.00
18987;BME280;9627;59.236;18.142;2023-03-11T08:16:31;99158.34;;;-0.21;100.00
18987;BME280;9627;59.236;18.142;2023-03-11T08:18:58;99153.38;;;-0.32;100.00
18987;BME280;9627;59.236;18.142;2023-03-11T08:21:26;99150.00;;;-0.24;100.00
18987;BME280;9627;59.236;18.142;2023-03-11T08:23:56;99160.50;;;-0.16;100.00
18987;BME280;9627;59.236;18.142;2023-03-11T08:26:26;99164.69;;;0.03;100.00
18987;BME280;9627;59.236;18.142;2023-03-11T08:28:53;99161.25;;;0.02;100.00
18987;BME280;9627;59.236;18.142;2023-03-11T08:31:21;99158.56;;;0.20;100.00
18987;BME280;9627;59.236;18.142;2023-03-11T08:33:50;99153.88;;;0.31;100.00
18987;BME280;9627;59.236;18.142;2023-03-11T08:36:17;99157.38;;;0.40;100.00
18987;BME280;9627;59.236;18.142;2023-03-11T08:38:45;99158.41;;;0.55;100.00
18987;BME280;9627;59.236;18.142;2023-03-11T08:41:12;99170.69;;;0.78;100.00
18987;BME280;9627;59.236;18.142;2023-03-11T08:43:42;99168.22;;;0.69;100.00
18987;BME280;9627;59.236;18.142;2023-03-11T08:46:11;99172.19;;;0.81;100.00
18987;BME280;9627;59.236;18.142;2023-03-11T08:48:40;99174.34;;;1.02;100.00
18987;BME280;9627;59.236;18.142;2023-03-11T08:51:08;99182.72;;;1.21;100.00
18987;BME280;9627;59.236;18.142;2023-03-11T08:53:35;99186.28;;;1.28;100.00
18987;BME280;9627;59.236;18.142;2023-03-11T08:56:02;99181.06;;;1.28;100.00
18987;BME280;9627;59.236;18.142;2023-03-11T08:58:29;99186.63;;;1.41;100.00
18987;BME280;9627;59.236;18.142;2023-03-11T09:00:58;99194.84;;;1.54;100.00
18987;BME280;9627;59.236;18.142;2023-03-11T09:03:26;99184.69;;;1.59;100.00
18987;BME280;9627;59.236;18.142;2023-03-11T09:05:57;99185.50;;;1.52;100.00
18987;BME280;9627;59.236;18.142;2023-03-11T09:08:24;99182.56;;;1.63;100.00
18987;BME280;9627;59.236;18.142;2023-03-11T09:10:51;99183.38;;;1.63;100.00
18987;BME280;9627;59.236;18.142;2023-03-11T09:13:19;99179.41;;;1.92;100.00
18987;BME280;9627;59.236;18.142;2023-03-11T09:15:46;99185.94;;;2.04;100.00
18987;BME280;9627;59.236;18.142;2023-03-11T09:18:18;99179.41;;;2.00;100.00
18987;BME280;9627;59.236;18.142;2023-03-11T09:20:45;99186.69;;;2.28;100.00
18987;BME280;9627;59.236;18.142;2023-03-11T09:23:13;99185.72;;;2.21;100.00
18987;BME280;9627;59.236;18.142;2023-03-11T09:25:40;99182.22;;;2.45;100.00
18987;BME280;9627;59.236;18.142;2023-03-11T09:28:08;99188.00;;;2.32;100.00
18987;BME280;9627;59.236;18.142;2023-03-11T09:30:35;99174.16;;;2.54;100.00
18987;BME280;9627;59.236;18.142;2023-03-11T09:33:02;99185.09;;;2.58;100.00
18987;BME280;9627;59.236;18.142;2023-03-11T09:35:31;99173.09;;;2.71;100.00
18987;BME280;9627;59.236;18.142;2023-03-11T09:37:58;99175.47;;;2.89;100.00
18987;BME280;9627;59.236;18.142;2023-03-11T09:40:27;99173.03;;;3.10;100.00
18987;BME280;9627;59.236;18.142;2023-03-11T09:43:02;99182.28;;;2.98;100.00
18987;BME280;9627;59.236;18.142;2023-03-11T09:45:33;99178.41;;;2.86;100.00
18987;BME280;9627;59.236;18.142;2023-03-11T09:48:04;99178.34;;;3.25;100.00
18987;BME280;9627;59.236;18.142;2023-03-11T09:50:36;99181.44;;;3.28;100.00
18987;BME280;9627;59.236;18.142;2023-03-11T09:53:09;99182.31;;;3.81;100.00
18987;BME280;9627;59.236;18.142;2023-03-11T09:55:40;99185.78;;;3.96;100.00
18987;BME280;9627;59.236;18.142;2023-03-11T09:58:09;99184.88;;;3.89;100.00
18987;BME280;9627;59.236;18.142;2023-03-11T10:00:38;99186.88;;;3.87;100.00
18987;BME280;9627;59.236;18.142;2023-03-11T10:03:05;99175.84;;;4.35;100.00
18987;BME280;9627;59.236;18.142;2023-03-11T10:05:38;99189.78;;;4.64;100.00
18987;BME280;9627;59.236;18.142;2023-03-11T10:08:10;99180.41;;;4.91;100.00
18987;BME280;9627;59.236;18.142;2023-03-11T10:10:40;99182.69;;;4.80;100.00
18987;BME280;9627;59.236;18.142;2023-03-11T10:13:13;99183.72;;;4.35;100.00
18987;BME280;9627;59.236;18.142;2023-03-11T10:15:42;99184.28;;;4.45;100.00
18987;BME280;9627;59.236;18.142;2023-03-11T10:20:57;99174.31;;;4.11;100.00
18987;BME280;9627;59.236;18.142;2023-03-11T10:23:27;99176.31;;;4.24;100.00
18987;BME280;9627;59.236;18.142;2023-03-11T10:26:02;99177.31;;;3.71;100.00
18987;BME280;9627;59.236;18.142;2023-03-11T10:28:32;99178.22;;;3.63;100.00
18987;BME280;9627;59.236;18.142;2023-03-11T10:31:03;99175.25;;;3.44;100.00
18987;BME280;9627;59.236;18.142;2023-03-11T10:33:34;99174.97;;;3.16;100.00
18987;BME280;9627;59.236;18.142;2023-03-11T10:36:08;99169.25;;;3.13;100.00
18987;BME280;9627;59.236;18.142;2023-03-11T10:38:38;99166.88;;;3.26;100.00
18987;BME280;9627;59.236;18.142;2023-03-11T10:41:11;99170.53;;;3.17;100.00
18987;BME280;9627;59.236;18.142;2023-03-11T10:43:42;99163.53;;;3.54;100.00
18987;BME280;9627;59.236;18.142;2023-03-11T10:46:12;99163.75;;;3.67;100.00
18987;BME280;9627;59.236;18.142;2023-03-11T10:48:41;99164.28;;;3.40;100.00
18987;BME280;9627;59.236;18.142;2023-03-11T10:51:13;99158.22;;;2.95;100.00
18987;BME280;9627;59.236;18.142;2023-03-11T10:53:45;99160.47;;;2.75;100.00
18987;BME280;9627;59.236;18.142;2023-03-11T10:56:22;99155.31;;;2.59;100.00
18987;BME280;9627;59.236;18.142;2023-03-11T10:58:49;99157.13;;;2.89;100.00
18987;BME280;9627;59.236;18.142;2023-03-11T11:01:18;99155.88;;;2.77;100.00
18987;BME280;9627;59.236;18.142;2023-03-11T11:03:46;99147.84;;;2.48;100.00
18987;BME280;9627;59.236;18.142;2023-03-11T11:06:24;99149.06;;;2.60;100.00
18987;BME280;9627;59.236;18.142;2023-03-11T11:09:12;99151.38;;;2.63;100.00
18987;BME280;9627;59.236;18.142;2023-03-11T11:11:40;99139.78;;;2.57;100.00
18987;BME280;9627;59.236;18.142;2023-03-11T11:14:07;99145.81;;;2.89;100.00
18987;BME280;9627;59.236;18.142;2023-03-11T11:16:35;99143.13;;;2.74;100.00
18987;BME280;9627;59.236;18.142;2023-03-11T11:19:02;99143.00;;;2.90;100.00
18987;BME280;9627;59.236;18.142;2023-03-11T11:21:32;99142.56;;;3.09;100.00
18987;BME280;9627;59.236;18.142;2023-03-11T11:24:02;99145.91;;;3.03;100.00
18987;BME280;9627;59.236;18.142;2023-03-11T11:26:31;99150.13;;;3.27;100.00
18987;BME280;9627;59.236;18.142;2023-03-11T11:29:12;99146.84;;;3.47;100.00
18987;BME280;9627;59.236;18.142;2023-03-11T11:31:39;99141.28;;;3.50;100.00
18987;BME280;9627;59.236;18.142;2023-03-11T11:34:21;99149.53;;;3.62;100.00
18987;BME280;9627;59.236;18.142;2023-03-11T11:36:52;99140.06;;;4.05;100.00
18987;BME280;9627;59.236;18.142;2023-03-11T11:39:21;99147.19;;;3.67;100.00
18987;BME280;9627;59.236;18.142;2023-03-11T11:41:50;99143.91;;;3.50;100.00
18987;BME280;9627;59.236;18.142;2023-03-11T11:44:18;99149.28;;;3.71;100.00
18987;BME280;9627;59.236;18.142;2023-03-11T11:46:48;99134.19;;;3.73;100.00
18987;BME280;9627;59.236;18.142;2023-03-11T11:49:17;99142.31;;;3.64;100.00
18987;BME280;9627;59.236;18.142;2023-03-11T11:51:47;99140.16;;;3.22;100.00
18987;BME280;9627;59.236;18.142;2023-03-11T11:54:17;99145.97;;;3.18;100.00
18987;BME280;9627;59.236;18.142;2023-03-11T11:56:48;99146.81;;;3.10;100.00
18987;BME280;9627;59.236;18.142;2023-03-11T11:59:16;99136.78;;;2.91;100.00
18987;BME280;9627;59.236;18.142;2023-03-11T12:01:47;99128.56;;;3.17;100.00
18987;BME280;9627;59.236;18.142;2023-03-11T12:04:19;99132.53;;;3.13;100.00
18987;BME280;9627;59.236;18.142;2023-03-11T12:06:59;99134.47;;;2.96;100.00
18987;BME280;9627;59.236;18.142;2023-03-11T12:09:33;99126.59;;;3.19;100.00
18987;BME280;9627;59.236;18.142;2023-03-11T12:12:04;99116.66;;;3.14;100.00
18987;BME280;9627;59.236;18.142;2023-03-11T12:14:34;99130.69;;;2.99;100.00
18987;BME280;9627;59.236;18.142;2023-03-11T12:17:03;99126.22;;;2.76;100.00
18987;BME280;9627;59.236;18.142;2023-03-11T12:19:35;99122.19;;;2.66;100.00
18987;BME280;9627;59.236;18.142;2023-03-11T12:22:13;99120.25;;;2.60;100.00
18987;BME280;9627;59.236;18.142;2023-03-11T12:24:49;99122.34;;;2.72;100.00
18987;BME280;9627;59.236;18.142;2023-03-11T12:27:23;99129.44;;;2.56;100.00
18987;BME280;9627;59.236;18.142;2023-03-11T12:29:51;99120.66;;;2.79;100.00
18987;BME280;9627;59.236;18.142;2023-03-11T12:32:22;99116.81;;;2.59;100.00
18987;BME280;9627;59.236;18.142;2023-03-11T12:34:50;99121.47;;;2.11;100.00
18987;BME280;9627;59.236;18.142;2023-03-11T12:37:17;99107.19;;;2.52;100.00
18987;BME280;9627;59.236;18.142;2023-03-11T12:39:48;99107.75;;;2.47;100.00
18987;BME280;9627;59.236;18.142;2023-03-11T12:42:17;99106.53;;;2.58;100.00
18987;BME280;9627;59.236;18.142;2023-03-11T12:44:45;99112.22;;;2.61;100.00
18987;BME280;9627;59.236;18.142;2023-03-11T12:47:22;99108.00;;;2.22;100.00
18987;BME280;9627;59.236;18.142;2023-03-11T12:49:50;99107.31;;;2.28;100.00
18987;BME280;9627;59.236;18.142;2023-03-11T12:52:22;99112.06;;;2.32;100.00
18987;BME280;9627;59.236;18.142;2023-03-11T12:57:35;99109.25;;;2.72;100.00
18987;BME280;9627;59.236;18.142;2023-03-11T13:00:13;99103.19;;;2.72;100.00
18987;BME280;9627;59.236;18.142;2023-03-11T13:02:55;99099.53;;;2.50;100.00
18987;BME280;9627;59.236;18.142;2023-03-11T13:05:27;99102.88;;;2.36;100.00
18987;BME280;9627;59.236;18.142;2023-03-11T13:07:56;99096.44;;;2.47;100.00